NORTHEAST SUFFOLK  -  Freeze Watch Freeze Watch        NORTHWEST SUFFOLK  -  Freeze Watch Freeze Watch        SOUTHEAST SUFFOLK  -  Freeze Watch Freeze Watch        SOUTHWEST SUFFOLK  -  Freeze Watch Freeze Watch      

Active alerts

Northwest Suffolk
  Details for Northwest Suffolk Freeze Watch
Southwest Suffolk
  Details for Southwest Suffolk Freeze Watch
Northeast Suffolk
  Details for Northeast Suffolk Freeze Watch
Southeast Suffolk
  Details for Southeast Suffolk Freeze Watch


WXM80 ListenWXM80 Stop

You find our weather info also at:

UK Metoffice

WeatherCloud

Weather Underground

Northeastern Weather Network

AWEKAS

Citizen Weather Observer Program (CWOP)

HAMweather, WeatherForYou, PWS Weather


Weather Underground History page Text

Daily Summary for June 21, 2016 Units:  English    Metric   Both
« Previous Day
Next Day »
Daily Weekly Monthly Yearly Custom
  High: Low: Average:
Temperature: 92.5 °F 68.3 °F 80.2 °F
Dew Point: 68.4 °F 56.0 °F 62 °F
Humidity: 75 % 32 % 56 %
Wind Speed: 6.9 mph 0.0 mph 2.2 mph
Wind Gust: 15.0 mph - -
Wind:- - WSW
Pressure: 29.83 in 29.70 in -
Precipitation: 0.00 in    
Historical Graphs
 
 
Tabular Data for June 21, 2016
Time Temperature Dew Point Pressure Wind Wind Speed Wind Gust Humidity Rainfall Rate (Hourly)
00:03 72.6 °F 63.8 °F 29.83 in SSW 4.4 mph 6.9 mph 74 % 0.00 in
00:08 72.8 °F 63.6 °F 29.82 in WSW 1.5 mph 6.9 mph 73 % 0.00 in
00:13 72.9 °F 62.9 °F 29.82 in SW 3.6 mph 6.9 mph 71 % 0.00 in
00:18 73.2 °F 62.8 °F 29.82 in WSW 2.0 mph 4.6 mph 70 % 0.00 in
00:23 73.4 °F 62.6 °F 29.81 in SW 3.2 mph 6.0 mph 69 % 0.00 in
00:28 73.6 °F 62.8 °F 29.81 in SW 2.3 mph 5.8 mph 69 % 0.00 in
00:33 73.7 °F 62.5 °F 29.81 in SW 1.0 mph 3.5 mph 68 % 0.00 in
00:39 73.9 °F 62.2 °F 29.81 in SSW 3.0 mph 11.5 mph 67 % 0.00 in
00:44 74.0 °F 62.3 °F 29.81 in SW 2.3 mph 8.0 mph 67 % 0.00 in
00:49 74.1 °F 62.0 °F 29.80 in WSW 2.1 mph 4.0 mph 66 % 0.00 in
00:54 74.2 °F 61.7 °F 29.80 in WSW 2.8 mph 5.8 mph 65 % 0.00 in
00:59 74.3 °F 61.8 °F 29.80 in West 2.9 mph 6.0 mph 65 % 0.00 in
01:04 74.4 °F 61.4 °F 29.79 in SW 3.7 mph 6.0 mph 64 % 0.00 in
01:09 74.6 °F 61.2 °F 29.80 in SW 2.3 mph 5.8 mph 63 % 0.00 in
01:14 74.7 °F 60.8 °F 29.80 in SW 1.8 mph 5.8 mph 62 % 0.00 in
01:19 74.8 °F 60.9 °F 29.79 in WSW 4.0 mph 8.1 mph 62 % 0.00 in
01:24 74.9 °F 61.0 °F 29.79 in SSW 2.8 mph 6.9 mph 62 % 0.00 in
01:30 75.1 °F 61.2 °F 29.79 in SW 4.4 mph 9.0 mph 62 % 0.00 in
01:35 75.2 °F 60.8 °F 29.79 in SW 2.0 mph 6.9 mph 61 % 0.00 in
01:40 75.3 °F 60.9 °F 29.79 in WSW 4.4 mph 11.5 mph 61 % 0.00 in
01:45 75.4 °F 61.0 °F 29.80 in SSW 4.0 mph 6.9 mph 61 % 0.00 in
01:50 75.5 °F 60.6 °F 29.79 in SSW 2.5 mph 4.6 mph 60 % 0.00 in
01:55 75.5 °F 60.6 °F 29.78 in SW 2.6 mph 9.0 mph 60 % 0.00 in
02:00 75.5 °F 60.6 °F 29.78 in SW 0.5 mph 8.1 mph 60 % 0.00 in
02:05 75.6 °F 60.3 °F 29.79 in SSW 1.6 mph 6.9 mph 59 % 0.00 in
02:10 75.6 °F 60.3 °F 29.78 in WSW 3.7 mph 11.5 mph 59 % 0.00 in
02:15 75.7 °F 60.8 °F 29.78 in SW 5.4 mph 7.0 mph 60 % 0.00 in
02:21 75.7 °F 60.4 °F 29.77 in SSW 4.7 mph 8.1 mph 59 % 0.00 in
02:26 75.8 °F 60.4 °F 29.77 in SW 4.1 mph 9.2 mph 59 % 0.00 in
02:31 75.8 °F 60.4 °F 29.77 in SW 0.8 mph 3.5 mph 59 % 0.00 in
02:36 75.8 °F 60.4 °F 29.77 in SW 0.7 mph 3.5 mph 59 % 0.00 in
02:41 75.7 °F 60.8 °F 29.77 in SW 1.6 mph 6.9 mph 60 % 0.00 in
02:46 75.7 °F 60.4 °F 29.76 in SSW 5.8 mph 8.1 mph 59 % 0.00 in
02:51 75.6 °F 60.3 °F 29.76 in WSW 4.0 mph 8.1 mph 59 % 0.00 in
02:56 75.6 °F 60.7 °F 29.76 in SSW 3.1 mph 5.0 mph 60 % 0.00 in
03:01 75.5 °F 60.6 °F 29.75 in WSW 1.8 mph 4.6 mph 60 % 0.00 in
03:06 75.4 °F 60.5 °F 29.75 in SSW 3.9 mph 11.5 mph 60 % 0.00 in
03:12 75.3 °F 60.5 °F 29.75 in WSW 3.4 mph 9.0 mph 60 % 0.00 in
03:17 75.4 °F 60.5 °F 29.75 in WSW 3.8 mph 7.0 mph 60 % 0.00 in
03:22 75.3 °F 60.9 °F 29.75 in SW 2.0 mph 4.6 mph 61 % 0.00 in
03:27 75.3 °F 60.5 °F 29.75 in WSW 2.3 mph 5.8 mph 60 % 0.00 in
03:32 75.3 °F 60.5 °F 29.75 in SW 2.4 mph 7.0 mph 60 % 0.00 in
03:37 75.3 °F 60.5 °F 29.75 in SSW 3.8 mph 5.8 mph 60 % 0.00 in
03:42 75.4 °F 61.0 °F 29.75 in SSW 5.4 mph 11.5 mph 61 % 0.00 in
03:47 75.4 °F 61.0 °F 29.75 in SW 3.3 mph 5.0 mph 61 % 0.00 in
03:52 75.4 °F 61.0 °F 29.74 in SSW 6.3 mph 11.0 mph 61 % 0.00 in
03:57 75.5 °F 61.1 °F 29.74 in SW 0.6 mph 2.3 mph 61 % 0.00 in
04:03 75.5 °F 61.1 °F 29.74 in SSW 4.5 mph 6.9 mph 61 % 0.00 in
04:08 75.4 °F 61.0 °F 29.73 in WSW 1.3 mph 9.0 mph 61 % 0.00 in
04:13 75.4 °F 61.0 °F 29.73 in SW 3.2 mph 11.5 mph 61 % 0.00 in
04:18 75.4 °F 61.0 °F 29.73 in WSW 4.5 mph 9.2 mph 61 % 0.00 in
04:23 75.4 °F 61.0 °F 29.73 in SW 1.8 mph 4.0 mph 61 % 0.00 in
04:28 75.4 °F 61.5 °F 29.73 in SW 3.3 mph 6.9 mph 62 % 0.00 in
04:33 75.3 °F 61.4 °F 29.72 in SW 3.4 mph 4.6 mph 62 % 0.00 in
04:38 75.3 °F 61.4 °F 29.72 in SSW 3.8 mph 6.9 mph 62 % 0.00 in
04:43 75.2 °F 61.7 °F 29.71 in SSW 2.6 mph 4.0 mph 63 % 0.00 in
04:48 75.1 °F 61.6 °F 29.72 in WSW 4.6 mph 6.9 mph 63 % 0.00 in
04:54 75.0 °F 61.5 °F 29.72 in SSW 3.9 mph 8.1 mph 63 % 0.00 in
04:59 74.9 °F 61.9 °F 29.73 in SW 2.5 mph 6.0 mph 64 % 0.00 in
05:04 74.9 °F 61.9 °F 29.73 in West 2.7 mph 9.2 mph 64 % 0.00 in
05:09 74.8 °F 62.2 °F 29.73 in SSW 3.6 mph 6.0 mph 65 % 0.00 in
05:14 74.8 °F 62.2 °F 29.74 in NNE 2.3 mph 3.5 mph 65 % 0.00 in
05:19 74.6 °F 62.5 °F 29.74 in NNE 1.8 mph 3.5 mph 66 % 0.00 in
05:24 74.5 °F 62.4 °F 29.74 in Calm     66 % 0.00 in
05:34 74.2 °F 63.0 °F 29.73 in Calm     68 % 0.00 in
05:39 74.1 °F 62.9 °F 29.73 in SSW 0.2 mph 3.5 mph 68 % 0.00 in
05:45 73.9 °F 62.7 °F 29.74 in WSW 0.9 mph 2.3 mph 68 % 0.00 in
05:50 73.7 °F 62.5 °F 29.73 in WSW 2.6 mph 3.5 mph 68 % 0.00 in
05:55 73.6 °F 62.4 °F 29.73 in West 0.7 mph 2.3 mph 68 % 0.00 in
06:00 73.6 °F 62.8 °F 29.73 in Calm     69 % 0.00 in
06:05 73.6 °F 62.8 °F 29.74 in SW 1.7 mph 3.5 mph 69 % 0.00 in
06:10 73.6 °F 62.8 °F 29.75 in WSW 1.2 mph 4.6 mph 69 % 0.00 in
06:15 73.7 °F 63.3 °F 29.75 in West 2.1 mph 3.5 mph 70 % 0.00 in
06:20 73.8 °F 63.4 °F 29.75 in WSW 0.3 mph 3.5 mph 70 % 0.00 in
06:25 73.9 °F 63.5 °F 29.75 in SW 3.3 mph 3.5 mph 70 % 0.00 in
06:31 74.1 °F 64.1 °F 29.75 in SW 2.9 mph 3.5 mph 71 % 0.00 in
06:36 74.3 °F 64.3 °F 29.75 in SW 3.3 mph 5.8 mph 71 % 0.00 in
06:41 74.4 °F 64.4 °F 29.75 in WSW 2.1 mph 4.6 mph 71 % 0.00 in
06:46 74.6 °F 64.6 °F 29.76 in West 4.0 mph 6.9 mph 71 % 0.00 in
06:51 74.8 °F 64.4 °F 29.77 in West 4.0 mph 12.7 mph 70 % 0.00 in
06:56 75.1 °F 64.6 °F 29.77 in SSW 3.8 mph 9.2 mph 70 % 0.00 in
07:01 75.5 °F 65.0 °F 29.76 in SSW 4.3 mph 10.4 mph 70 % 0.00 in
07:06 75.7 °F 64.8 °F 29.77 in West 4.2 mph 11.5 mph 69 % 0.00 in
07:11 75.9 °F 65.0 °F 29.78 in West 4.3 mph 8.1 mph 69 % 0.00 in
07:16 76.1 °F 65.2 °F 29.78 in WSW 5.2 mph 10.4 mph 69 % 0.00 in
07:22 76.2 °F 65.7 °F 29.77 in WSW 4.2 mph 7.0 mph 70 % 0.00 in
07:27 76.2 °F 65.7 °F 29.77 in WSW 4.2 mph 10.4 mph 70 % 0.00 in
07:32 76.2 °F 65.7 °F 29.78 in West 5.7 mph 12.7 mph 70 % 0.00 in
07:37 76.0 °F 64.7 °F 29.77 in WNW 6.9 mph 15.0 mph 68 % 0.00 in
07:42 75.7 °F 62.7 °F 29.77 in WNW 6.4 mph 11.5 mph 64 % 0.00 in
07:47 75.5 °F 61.6 °F 29.77 in West 5.2 mph 11.5 mph 62 % 0.00 in
07:52 75.1 °F 61.2 °F 29.75 in WNW 3.2 mph 4.6 mph 62 % 0.00 in
07:57 74.9 °F 61.5 °F 29.73 in West 0.1 mph 3.5 mph 63 % 0.00 in
08:02 74.7 °F 61.7 °F 29.71 in Calm     64 % 0.00 in
08:13 74.6 °F 62.1 °F 29.74 in WNW 1.4 mph 6.0 mph 65 % 0.00 in
08:18 74.3 °F 62.2 °F 29.75 in WNW 2.7 mph 5.0 mph 66 % 0.00 in
08:23 74.1 °F 62.9 °F 29.75 in NNE 3.6 mph 4.6 mph 68 % 0.00 in
08:28 73.9 °F 63.1 °F 29.76 in West 1.4 mph 3.5 mph 69 % 0.00 in
08:33 73.8 °F 63.8 °F 29.76 in West 1.2 mph 3.5 mph 71 % 0.00 in
08:38 73.8 °F 64.2 °F 29.77 in West 2.1 mph 3.0 mph 72 % 0.00 in
08:43 73.8 °F 64.6 °F 29.76 in Calm   1.2 mph 73 % 0.00 in
08:48 73.9 °F 65.1 °F 29.76 in Calm     74 % 0.00 in
08:53 74.0 °F 65.6 °F 29.77 in WNW 0.3 mph 3.0 mph 75 % 0.00 in
08:58 74.2 °F 65.4 °F 29.77 in WNW 1.7 mph 3.5 mph 74 % 0.00 in
09:04 74.2 °F 65.4 °F 29.77 in WNW 0.3 mph 3.5 mph 74 % 0.00 in
09:09 74.3 °F 65.9 °F 29.77 in WNW 2.2 mph 3.5 mph 75 % 0.00 in
09:14 74.4 °F 66.0 °F 29.78 in WNW 3.9 mph 4.6 mph 75 % 0.00 in
09:29 75.2 °F 66.3 °F 29.79 in NW 2.7 mph 5.8 mph 74 % 0.00 in
09:34 75.7 °F 66.0 °F 29.78 in West 4.4 mph 6.9 mph 72 % 0.00 in
09:39 76.1 °F 66.4 °F 29.79 in NNW 1.1 mph 3.5 mph 72 % 0.00 in
09:44 76.7 °F 66.2 °F 29.79 in West 4.2 mph 6.9 mph 70 % 0.00 in
09:50 77.5 °F 67.8 °F 29.79 in WNW 3.1 mph 4.6 mph 72 % 0.00 in
09:55 78.3 °F 67.7 °F 29.79 in WNW 3.0 mph 4.6 mph 70 % 0.00 in
10:00 79.3 °F 67.0 °F 29.79 in WNW 2.2 mph 5.8 mph 66 % 0.00 in
10:05 80.4 °F 68.4 °F 29.80 in WNW 1.6 mph 5.8 mph 67 % 0.00 in
10:10 81.2 °F 67.4 °F 29.80 in WSW 3.9 mph 6.9 mph 63 % 0.00 in
10:15 81.8 °F 66.6 °F 29.79 in WNW 2.8 mph 6.9 mph 60 % 0.00 in
10:20 82.5 °F 67.2 °F 29.80 in WNW 2.4 mph 5.8 mph 60 % 0.00 in
10:25 83.1 °F 67.8 °F 29.80 in West 3.4 mph 5.0 mph 60 % 0.00 in
10:30 83.7 °F 67.8 °F 29.80 in WNW 2.7 mph 6.9 mph 59 % 0.00 in
10:35 84.2 °F 67.3 °F 29.80 in WNW 1.9 mph 4.0 mph 57 % 0.00 in
10:40 84.8 °F 66.8 °F 29.80 in NW 2.3 mph 5.8 mph 55 % 0.00 in
10:46 85.2 °F 66.7 °F 29.80 in WSW 3.7 mph 5.8 mph 54 % 0.00 in
10:51 85.5 °F 67.5 °F 29.80 in WSW 1.8 mph 3.5 mph 55 % 0.00 in
10:56 85.7 °F 66.0 °F 29.81 in NNW 1.7 mph 3.5 mph 52 % 0.00 in
11:01 85.9 °F 65.7 °F 29.81 in SW 1.5 mph 4.6 mph 51 % 0.00 in
11:06 86.3 °F 67.7 °F 29.81 in NW 1.5 mph 3.5 mph 54 % 0.00 in
11:11 86.8 °F 67.1 °F 29.81 in NNE 2.5 mph 4.6 mph 52 % 0.00 in
11:16 87.0 °F 65.5 °F 29.81 in WNW 3.2 mph 4.6 mph 49 % 0.00 in
11:21 87.4 °F 68.2 °F 29.81 in North 1.3 mph 4.6 mph 53 % 0.00 in
11:26 87.8 °F 66.8 °F 29.81 in WNW 2.1 mph 3.5 mph 50 % 0.00 in
11:32 88.2 °F 68.4 °F 29.81 in NW 2.4 mph 3.5 mph 52 % 0.00 in
11:37 88.5 °F 67.5 °F 29.81 in WNW 1.1 mph 3.5 mph 50 % 0.00 in
11:42 88.9 °F 67.3 °F 29.81 in WSW 3.2 mph 4.6 mph 49 % 0.00 in
11:47 89.3 °F 67.6 °F 29.81 in North 0.1 mph 2.3 mph 49 % 0.00 in
11:52 89.6 °F 66.7 °F 29.81 in WSW 2.1 mph 3.5 mph 47 % 0.00 in
12:02 89.6 °F 62.8 °F 29.81 in WSW 4.8 mph 9.2 mph 41 % 0.00 in
12:07 89.5 °F 63.4 °F 29.81 in SW 4.7 mph 5.8 mph 42 % 0.00 in
12:12 89.5 °F 62.7 °F 29.81 in West 2.7 mph 5.0 mph 41 % 0.00 in
12:18 89.6 °F 62.8 °F 29.80 in SW 1.7 mph 4.0 mph 41 % 0.00 in
12:23 89.9 °F 63.0 °F 29.81 in SW 3.7 mph 5.8 mph 41 % 0.00 in
12:28 89.8 °F 60.1 °F 29.80 in SW 5.4 mph 8.1 mph 37 % 0.00 in
12:33 89.8 °F 60.1 °F 29.80 in West 4.1 mph 6.9 mph 37 % 0.00 in
12:38 90.0 °F 61.7 °F 29.79 in West 1.7 mph 3.5 mph 39 % 0.00 in
12:43 90.1 °F 59.5 °F 29.79 in WSW 3.5 mph 6.9 mph 36 % 0.00 in
12:48 90.1 °F 59.5 °F 29.80 in SSW 4.4 mph 7.0 mph 36 % 0.00 in
12:53 90.1 °F 59.5 °F 29.79 in SSW 4.2 mph 6.0 mph 36 % 0.00 in
12:58 89.9 °F 59.4 °F 29.79 in WSW 2.9 mph 8.1 mph 36 % 0.00 in
13:03 90.0 °F 61.7 °F 29.79 in WSW 5.7 mph 6.0 mph 39 % 0.00 in
13:09 90.2 °F 61.2 °F 29.79 in SSW 3.4 mph 6.0 mph 38 % 0.00 in
13:14 90.2 °F 60.4 °F 29.79 in NW 3.6 mph 6.9 mph 37 % 0.00 in
13:19 90.5 °F 61.4 °F 29.79 in WSW 3.9 mph 6.9 mph 38 % 0.00 in
13:24 90.7 °F 61.6 °F 29.78 in West 3.6 mph 7.0 mph 38 % 0.00 in
13:29 90.7 °F 61.6 °F 29.78 in West 5.3 mph 8.1 mph 38 % 0.00 in
13:34 90.7 °F 60.1 °F 29.78 in WSW 4.9 mph 9.2 mph 36 % 0.00 in
13:39 90.9 °F 62.5 °F 29.78 in NW 4.2 mph 5.8 mph 39 % 0.00 in
13:44 91.1 °F 64.1 °F 29.77 in West 3.1 mph 5.8 mph 41 % 0.00 in
13:49 91.0 °F 60.3 °F 29.77 in SW 6.1 mph 9.0 mph 36 % 0.00 in
13:54 90.9 °F 61.8 °F 29.77 in WSW 4.1 mph 8.1 mph 38 % 0.00 in
14:00 90.8 °F 61.7 °F 29.77 in SW 5.5 mph 8.0 mph 38 % 0.00 in
14:05 90.6 °F 62.3 °F 29.77 in SW 4.8 mph 9.2 mph 39 % 0.00 in
14:15 91.1 °F 62.0 °F 29.77 in WSW 1.5 mph 8.1 mph 38 % 0.00 in
14:20 91.3 °F 61.4 °F 29.77 in West 0.9 mph 3.5 mph 37 % 0.00 in
14:25 91.3 °F 60.6 °F 29.77 in WSW 6.3 mph 11.5 mph 36 % 0.00 in
14:30 91.3 °F 60.6 °F 29.77 in WNW 2.3 mph 4.6 mph 36 % 0.00 in
14:35 91.3 °F 59.8 °F 29.76 in WSW 3.4 mph 4.6 mph 35 % 0.00 in
14:40 91.4 °F 59.9 °F 29.76 in West 4.6 mph 7.0 mph 35 % 0.00 in
14:45 91.7 °F 61.0 °F 29.76 in WSW 2.9 mph 6.9 mph 36 % 0.00 in
14:51 92.0 °F 60.4 °F 29.75 in WSW 3.2 mph 9.2 mph 35 % 0.00 in
14:56 92.1 °F 58.9 °F 29.75 in SW 4.6 mph 8.1 mph 33 % 0.00 in
15:01 92.3 °F 59.9 °F 29.75 in SSW 5.2 mph 9.2 mph 34 % 0.00 in
15:06 92.4 °F 59.1 °F 29.75 in WSW 5.5 mph 11.5 mph 33 % 0.00 in
15:11 92.4 °F 60.0 °F 29.75 in SW 5.6 mph 9.0 mph 34 % 0.00 in
15:16 92.4 °F 59.1 °F 29.75 in NW 5.5 mph 10.4 mph 33 % 0.00 in
15:21 92.5 °F 60.0 °F 29.75 in WSW 4.2 mph 10.4 mph 34 % 0.00 in
15:26 92.5 °F 59.2 °F 29.74 in West 4.5 mph 6.9 mph 33 % 0.00 in
15:31 92.3 °F 58.2 °F 29.73 in SW 4.6 mph 6.9 mph 32 % 0.00 in
15:36 92.1 °F 59.7 °F 29.73 in West 2.7 mph 4.6 mph 34 % 0.00 in
15:42 92.1 °F 60.5 °F 29.73 in SW 0.8 mph 3.5 mph 35 % 0.00 in
15:47 91.9 °F 60.3 °F 29.73 in SW 1.9 mph 9.2 mph 35 % 0.00 in
15:52 91.9 °F 61.1 °F 29.73 in NW 1.1 mph 3.5 mph 36 % 0.00 in
15:57 91.9 °F 58.7 °F 29.73 in WSW 2.8 mph 5.8 mph 33 % 0.00 in
16:02 91.9 °F 59.5 °F 29.73 in WSW 3.6 mph 6.9 mph 34 % 0.00 in
16:07 92.0 °F 60.4 °F 29.73 in West 1.2 mph 3.5 mph 35 % 0.00 in
16:12 92.0 °F 60.4 °F 29.73 in NNE 1.1 mph 4.0 mph 35 % 0.00 in
16:17 91.9 °F 61.1 °F 29.72 in North 0.9 mph 3.5 mph 36 % 0.00 in
16:22 92.0 °F 58.8 °F 29.73 in SSW 2.9 mph 3.5 mph 33 % 0.00 in
16:27 92.0 °F 59.6 °F 29.73 in WSW 1.6 mph 2.3 mph 34 % 0.00 in
16:33 91.9 °F 58.7 °F 29.73 in SW 2.5 mph 3.5 mph 33 % 0.00 in
16:38 91.6 °F 57.6 °F 29.73 in SW 1.5 mph 6.9 mph 32 % 0.00 in
16:43 91.2 °F 58.9 °F 29.73 in WNW 0.3 mph 2.3 mph 34 % 0.00 in
16:48 90.4 °F 59.0 °F 29.72 in WSW 2.7 mph 4.6 mph 35 % 0.00 in
16:53 89.6 °F 57.5 °F 29.72 in West 0.3 mph 1.2 mph 34 % 0.00 in
16:58 88.8 °F 59.2 °F 29.72 in West 0.5 mph 2.3 mph 37 % 0.00 in
17:03 88.3 °F 57.2 °F 29.72 in West 0.8 mph 3.5 mph 35 % 0.00 in
17:08 87.7 °F 58.2 °F 29.72 in West 0.1 mph 1.2 mph 37 % 0.00 in
17:13 87.4 °F 57.9 °F 29.72 in Calm   2.0 mph 37 % 0.00 in
17:18 87.2 °F 57.8 °F 29.72 in West 0.8 mph 2.0 mph 37 % 0.00 in
17:24 86.8 °F 58.1 °F 29.71 in Calm   1.2 mph 38 % 0.00 in
17:29 86.5 °F 57.1 °F 29.71 in WNW 0.6 mph 2.3 mph 37 % 0.00 in
17:34 86.4 °F 58.5 °F 29.71 in WNW 0.1 mph 2.3 mph 39 % 0.00 in
17:39 86.2 °F 58.3 °F 29.71 in Calm     39 % 0.00 in
17:44 86.1 °F 58.2 °F 29.71 in SW 1.3 mph 2.3 mph 39 % 0.00 in
17:49 86.1 °F 60.3 °F 29.71 in Calm   1.0 mph 42 % 0.00 in
17:54 86.1 °F 61.0 °F 29.71 in SW 0.1 mph 3.5 mph 43 % 0.00 in
17:59 86.1 °F 62.3 °F 29.71 in SW 0.1 mph 1.2 mph 45 % 0.00 in
18:04 86.1 °F 62.9 °F 29.71 in SSE 0.9 mph 3.5 mph 46 % 0.00 in
18:09 85.9 °F 63.9 °F 29.70 in WSW 0.9 mph 2.3 mph 48 % 0.00 in
18:15 85.6 °F 62.4 °F 29.70 in SSW 0.8 mph 3.0 mph 46 % 0.00 in
18:20 85.0 °F 63.1 °F 29.70 in SW 1.9 mph 3.0 mph 48 % 0.00 in
18:25 84.9 °F 63.0 °F 29.70 in WSW 0.2 mph 3.5 mph 48 % 0.00 in
18:30 84.7 °F 63.4 °F 29.70 in WSW 0.7 mph 2.3 mph 49 % 0.00 in
18:35 84.5 °F 63.2 °F 29.70 in South 3.1 mph 4.6 mph 49 % 0.00 in
18:40 84.3 °F 63.6 °F 29.70 in SSW 3.2 mph 8.1 mph 50 % 0.00 in
18:45 84.0 °F 63.9 °F 29.70 in South 1.7 mph 3.5 mph 51 % 0.00 in
18:50 83.7 °F 64.2 °F 29.71 in WSW 1.5 mph 3.5 mph 52 % 0.00 in
18:55 83.4 °F 64.5 °F 29.71 in SSW 0.2 mph 1.2 mph 53 % 0.00 in
19:00 83.1 °F 64.7 °F 29.72 in SW 1.3 mph 4.6 mph 54 % 0.00 in
19:06 82.8 °F 65.0 °F 29.72 in SSW 0.3 mph 2.3 mph 55 % 0.00 in
19:11 82.6 °F 65.3 °F 29.72 in SW 1.3 mph 4.6 mph 56 % 0.00 in
19:16 82.4 °F 65.6 °F 29.72 in SSW 1.2 mph 3.5 mph 57 % 0.00 in
19:21 82.1 °F 65.9 °F 29.72 in WSW 0.7 mph 3.5 mph 58 % 0.00 in
19:26 81.9 °F 66.2 °F 29.72 in SW 1.2 mph 3.5 mph 59 % 0.00 in
19:31 81.6 °F 65.9 °F 29.72 in SW 1.1 mph 4.0 mph 59 % 0.00 in
19:36 81.3 °F 66.1 °F 29.72 in SSW 0.1 mph 3.5 mph 60 % 0.00 in
19:41 81.0 °F 66.3 °F 29.72 in SSW 0.5 mph 2.3 mph 61 % 0.00 in
19:46 80.7 °F 66.5 °F 29.72 in WSW 0.1 mph 1.2 mph 62 % 0.00 in
19:51 80.3 °F 66.6 °F 29.72 in WSW 0.2 mph 1.2 mph 63 % 0.00 in
20:02 79.8 °F 66.5 °F 29.72 in Calm   1.2 mph 64 % 0.00 in
20:07 79.5 °F 66.7 °F 29.72 in Calm     65 % 0.00 in
20:12 79.2 °F 66.9 °F 29.72 in WSW 0.2 mph 1.0 mph 66 % 0.00 in
20:17 78.8 °F 66.9 °F 29.73 in NNW 4.5 mph 8.1 mph 67 % 0.00 in
20:22 78.4 °F 66.5 °F 29.73 in West 1.4 mph 3.5 mph 67 % 0.00 in
20:27 78.2 °F 66.3 °F 29.73 in Calm     67 % 0.00 in
20:32 78.0 °F 66.6 °F 29.73 in WNW 0.9 mph 2.3 mph 68 % 0.00 in
20:37 77.9 °F 66.5 °F 29.74 in WNW 2.3 mph 3.5 mph 68 % 0.00 in
20:42 77.6 °F 65.8 °F 29.74 in WNW 1.4 mph 2.0 mph 67 % 0.00 in
20:48 77.4 °F 64.3 °F 29.74 in Calm   3.5 mph 64 % 0.00 in
20:53 77.2 °F 62.7 °F 29.74 in Calm     61 % 0.00 in
20:58 77.0 °F 61.6 °F 29.74 in Calm     59 % 0.00 in
21:03 76.8 °F 60.9 °F 29.74 in Calm     58 % 0.00 in
21:08 76.6 °F 58.7 °F 29.74 in NNW 0.2 mph 2.3 mph 54 % 0.00 in
21:13 76.4 °F 58.0 °F 29.75 in Calm     53 % 0.00 in
21:18 76.3 °F 58.4 °F 29.75 in Calm   1.2 mph 54 % 0.00 in
21:23 76.1 °F 57.7 °F 29.76 in Calm     53 % 0.00 in
21:28 75.9 °F 57.0 °F 29.76 in Calm   1.2 mph 52 % 0.00 in
21:33 75.7 °F 56.8 °F 29.77 in Calm   2.3 mph 52 % 0.00 in
21:39 75.5 °F 57.2 °F 29.77 in Calm     53 % 0.00 in
21:44 75.2 °F 57.9 °F 29.77 in NNW 0.7 mph 2.3 mph 55 % 0.00 in
21:49 74.9 °F 57.6 °F 29.78 in Calm     55 % 0.00 in
21:54 74.6 °F 57.4 °F 29.77 in Calm     55 % 0.00 in
21:59 74.3 °F 57.6 °F 29.77 in Calm   1.2 mph 56 % 0.00 in
22:09 73.7 °F 59.4 °F 29.76 in Calm     61 % 0.00 in
22:14 73.3 °F 59.9 °F 29.77 in Calm   1.2 mph 63 % 0.00 in
22:19 72.9 °F 59.6 °F 29.77 in Calm     63 % 0.00 in
22:24 72.5 °F 58.7 °F 29.77 in Calm     62 % 0.00 in
22:30 72.2 °F 58.0 °F 29.77 in Calm   1.2 mph 61 % 0.00 in
22:35 71.9 °F 56.3 °F 29.77 in NNW 1.4 mph 2.3 mph 58 % 0.00 in
22:40 71.6 °F 56.5 °F 29.77 in Calm     59 % 0.00 in
22:45 71.4 °F 57.7 °F 29.77 in NNW 0.2 mph 1.2 mph 62 % 0.00 in
22:50 71.2 °F 57.5 °F 29.77 in Calm     62 % 0.00 in
22:55 71.1 °F 57.4 °F 29.78 in Calm     62 % 0.00 in
23:00 70.9 °F 57.2 °F 29.78 in Calm     62 % 0.00 in
23:05 70.7 °F 57.5 °F 29.78 in Calm     63 % 0.00 in
23:10 70.4 °F 57.2 °F 29.78 in Calm   1.2 mph 63 % 0.00 in
23:15 70.2 °F 57.0 °F 29.78 in Calm     63 % 0.00 in
23:21 69.9 °F 56.7 °F 29.77 in Calm     63 % 0.00 in
23:26 69.7 °F 57.0 °F 29.77 in Calm   1.2 mph 64 % 0.00 in
23:31 69.5 °F 57.2 °F 29.77 in Calm     65 % 0.00 in
23:36 69.2 °F 56.9 °F 29.77 in NNW 0.2 mph 1.2 mph 65 % 0.00 in
23:41 68.9 °F 56.2 °F 29.77 in Calm   1.2 mph 64 % 0.00 in
23:46 68.7 °F 56.0 °F 29.77 in Calm     64 % 0.00 in
23:51 68.5 °F 56.3 °F 29.77 in NNW 0.1 mph 1.2 mph 65 % 0.00 in
23:56 68.3 °F 56.1 °F 29.77 in Calm     65 % 0.00 in
Crab Meadow Weather
Compliments of Weather Underground - 3 mb

Script developed by  Jim McMurry - jmcmurry@mwt.net Adapted for the template by  Wim van der Kuil - Leuven-Template.eu

Weather Terms: Funnel Cloud - A rotating column of air, extending from a towering cumulus or cumulonimbus cloud, that is not in contact with the ground.